sensor_id;sensor_type;location;lat;lon;timestamp;temperature;humidity
40732;DHT22;26420;52.256;9.096;2024-02-26T00:01:01;3.00;99.90
40732;DHT22;26420;52.256;9.096;2024-02-26T00:06:03;2.90;99.90
40732;DHT22;26420;52.256;9.096;2024-02-26T00:11:05;2.70;99.90
40732;DHT22;26420;52.256;9.096;2024-02-26T00:16:07;2.60;99.90
40732;DHT22;26420;52.256;9.096;2024-02-26T00:21:09;2.50;99.90
40732;DHT22;26420;52.256;9.096;2024-02-26T00:26:10;2.50;99.90
40732;DHT22;26420;52.256;9.096;2024-02-26T00:31:12;2.50;99.90
40732;DHT22;26420;52.256;9.096;2024-02-26T00:36:14;2.30;99.90
40732;DHT22;26420;52.256;9.096;2024-02-26T00:41:20;2.10;99.90
40732;DHT22;26420;52.256;9.096;2024-02-26T00:46:22;1.90;99.90
40732;DHT22;26420;52.256;9.096;2024-02-26T00:51:23;1.80;99.90
40732;DHT22;26420;52.256;9.096;2024-02-26T00:56:26;1.80;99.90
40732;DHT22;26420;52.256;9.096;2024-02-26T01:01:28;1.80;99.90
40732;DHT22;26420;52.256;9.096;2024-02-26T01:06:30;1.80;99.90
40732;DHT22;26420;52.256;9.096;2024-02-26T01:11:32;2.00;99.90
40732;DHT22;26420;52.256;9.096;2024-02-26T01:16:34;2.00;99.90
40732;DHT22;26420;52.256;9.096;2024-02-26T01:21:36;1.90;99.90
40732;DHT22;26420;52.256;9.096;2024-02-26T01:26:38;1.90;99.90
40732;DHT22;26420;52.256;9.096;2024-02-26T01:31:40;1.90;99.90
40732;DHT22;26420;52.256;9.096;2024-02-26T01:36:42;2.00;99.90
40732;DHT22;26420;52.256;9.096;2024-02-26T01:41:44;1.90;99.90
40732;DHT22;26420;52.256;9.096;2024-02-26T01:46:45;1.80;99.90
40732;DHT22;26420;52.256;9.096;2024-02-26T01:51:47;1.80;99.90
40732;DHT22;26420;52.256;9.096;2024-02-26T01:56:49;2.10;99.90
40732;DHT22;26420;52.256;9.096;2024-02-26T02:01:55;2.00;99.90
40732;DHT22;26420;52.256;9.096;2024-02-26T02:07:00;2.00;99.90
40732;DHT22;26420;52.256;9.096;2024-02-26T02:12:03;1.80;99.90
40732;DHT22;26420;52.256;9.096;2024-02-26T02:23:53;1.70;99.90
40732;DHT22;26420;52.256;9.096;2024-02-26T02:28:55;1.70;99.90
40732;DHT22;26420;52.256;9.096;2024-02-26T02:33:57;1.70;99.90
40732;DHT22;26420;52.256;9.096;2024-02-26T02:38:59;1.60;99.90
40732;DHT22;26420;52.256;9.096;2024-02-26T02:44:01;1.50;99.90
40732;DHT22;26420;52.256;9.096;2024-02-26T02:49:04;1.60;99.90
40732;DHT22;26420;52.256;9.096;2024-02-26T02:54:05;1.80;99.90
40732;DHT22;26420;52.256;9.096;2024-02-26T02:59:07;2.00;99.90
40732;DHT22;26420;52.256;9.096;2024-02-26T03:04:09;2.10;99.90
40732;DHT22;26420;52.256;9.096;2024-02-26T03:09:11;2.20;99.90
40732;DHT22;26420;52.256;9.096;2024-02-26T03:14:13;2.20;99.90
40732;DHT22;26420;52.256;9.096;2024-02-26T03:19:15;2.20;99.90
40732;DHT22;26420;52.256;9.096;2024-02-26T03:24:20;2.30;99.90
40732;DHT22;26420;52.256;9.096;2024-02-26T03:29:22;2.40;99.90
40732;DHT22;26420;52.256;9.096;2024-02-26T03:34:23;2.30;99.90
40732;DHT22;26420;52.256;9.096;2024-02-26T03:39:25;2.40;99.90
40732;DHT22;26420;52.256;9.096;2024-02-26T03:44:27;2.50;99.90
40732;DHT22;26420;52.256;9.096;2024-02-26T03:49:29;2.60;99.90
40732;DHT22;26420;52.256;9.096;2024-02-26T03:54:34;2.60;99.90
40732;DHT22;26420;52.256;9.096;2024-02-26T03:59:36;2.70;99.90
40732;DHT22;26420;52.256;9.096;2024-02-26T04:04:38;2.70;99.90
40732;DHT22;26420;52.256;9.096;2024-02-26T04:09:39;2.70;99.90
40732;DHT22;26420;52.256;9.096;2024-02-26T04:14:41;2.70;99.90
40732;DHT22;26420;52.256;9.096;2024-02-26T04:19:43;2.70;99.90
40732;DHT22;26420;52.256;9.096;2024-02-26T04:24:45;2.80;99.90
40732;DHT22;26420;52.256;9.096;2024-02-26T04:29:46;2.90;99.90
40732;DHT22;26420;52.256;9.096;2024-02-26T04:34:48;2.90;99.90
40732;DHT22;26420;52.256;9.096;2024-02-26T04:39:50;2.90;99.90
40732;DHT22;26420;52.256;9.096;2024-02-26T04:44:52;2.90;99.90
40732;DHT22;26420;52.256;9.096;2024-02-26T04:49:54;2.90;99.90
40732;DHT22;26420;52.256;9.096;2024-02-26T04:54:55;2.90;99.90
40732;DHT22;26420;52.256;9.096;2024-02-26T04:59:57;3.00;99.90
40732;DHT22;26420;52.256;9.096;2024-02-26T05:04:59;2.90;99.90
40732;DHT22;26420;52.256;9.096;2024-02-26T05:10:01;2.90;99.90
40732;DHT22;26420;52.256;9.096;2024-02-26T05:15:03;2.90;99.90
40732;DHT22;26420;52.256;9.096;2024-02-26T05:20:05;2.90;99.90
40732;DHT22;26420;52.256;9.096;2024-02-26T05:25:09;2.90;99.90
40732;DHT22;26420;52.256;9.096;2024-02-26T05:30:11;2.90;99.90
40732;DHT22;26420;52.256;9.096;2024-02-26T05:35:13;3.00;99.90
40732;DHT22;26420;52.256;9.096;2024-02-26T05:40:16;3.00;99.90
40732;DHT22;26420;52.256;9.096;2024-02-26T05:45:18;3.00;99.90
40732;DHT22;26420;52.256;9.096;2024-02-26T05:50:20;3.10;99.90
40732;DHT22;26420;52.256;9.096;2024-02-26T05:55:22;3.00;99.90
40732;DHT22;26420;52.256;9.096;2024-02-26T06:00:24;3.10;99.90
40732;DHT22;26420;52.256;9.096;2024-02-26T06:05:25;3.10;99.90
40732;DHT22;26420;52.256;9.096;2024-02-26T06:10:28;3.10;99.90
40732;DHT22;26420;52.256;9.096;2024-02-26T06:15:30;3.10;99.90
40732;DHT22;26420;52.256;9.096;2024-02-26T06:20:32;3.20;99.90
40732;DHT22;26420;52.256;9.096;2024-02-26T06:25:33;3.10;99.90
40732;DHT22;26420;52.256;9.096;2024-02-26T06:30:35;3.20;99.90
40732;DHT22;26420;52.256;9.096;2024-02-26T06:35:38;3.20;99.90
40732;DHT22;26420;52.256;9.096;2024-02-26T06:40:40;3.10;99.90
40732;DHT22;26420;52.256;9.096;2024-02-26T06:45:41;3.20;99.90
40732;DHT22;26420;52.256;9.096;2024-02-26T06:50:43;3.20;99.90
40732;DHT22;26420;52.256;9.096;2024-02-26T06:55:45;3.20;99.90
40732;DHT22;26420;52.256;9.096;2024-02-26T07:00:47;3.20;99.90
40732;DHT22;26420;52.256;9.096;2024-02-26T07:05:49;3.30;99.90
40732;DHT22;26420;52.256;9.096;2024-02-26T07:10:52;3.40;99.90
40732;DHT22;26420;52.256;9.096;2024-02-26T07:15:53;3.30;99.90
40732;DHT22;26420;52.256;9.096;2024-02-26T07:20:55;3.40;99.90
40732;DHT22;26420;52.256;9.096;2024-02-26T07:25:58;3.50;99.90
40732;DHT22;26420;52.256;9.096;2024-02-26T07:31:00;3.60;99.90
40732;DHT22;26420;52.256;9.096;2024-02-26T07:36:02;3.50;99.90
40732;DHT22;26420;52.256;9.096;2024-02-26T07:41:05;3.70;99.90
40732;DHT22;26420;52.256;9.096;2024-02-26T07:46:07;3.70;99.90
40732;DHT22;26420;52.256;9.096;2024-02-26T07:51:11;3.70;99.90
40732;DHT22;26420;52.256;9.096;2024-02-26T07:56:13;3.80;99.90
40732;DHT22;26420;52.256;9.096;2024-02-26T08:01:15;3.80;99.90
40732;DHT22;26420;52.256;9.096;2024-02-26T08:06:17;3.90;99.90
40732;DHT22;26420;52.256;9.096;2024-02-26T08:11:19;3.90;99.90
40732;DHT22;26420;52.256;9.096;2024-02-26T08:16:21;3.90;99.90
40732;DHT22;26420;52.256;9.096;2024-02-26T08:21:22;4.00;99.90
40732;DHT22;26420;52.256;9.096;2024-02-26T08:26:24;4.10;99.90
40732;DHT22;26420;52.256;9.096;2024-02-26T08:31:26;4.30;99.90
40732;DHT22;26420;52.256;9.096;2024-02-26T08:36:30;4.40;99.90
40732;DHT22;26420;52.256;9.096;2024-02-26T08:41:32;4.40;99.90
40732;DHT22;26420;52.256;9.096;2024-02-26T08:46:34;4.50;99.90
40732;DHT22;26420;52.256;9.096;2024-02-26T08:51:44;4.50;99.90
40732;DHT22;26420;52.256;9.096;2024-02-26T08:56:46;4.60;99.90
40732;DHT22;26420;52.256;9.096;2024-02-26T09:01:49;4.90;99.90
40732;DHT22;26420;52.256;9.096;2024-02-26T09:06:50;5.00;99.90
40732;DHT22;26420;52.256;9.096;2024-02-26T09:11:52;5.20;99.90
40732;DHT22;26420;52.256;9.096;2024-02-26T09:16:54;5.30;99.90
40732;DHT22;26420;52.256;9.096;2024-02-26T09:21:58;5.40;99.90
40732;DHT22;26420;52.256;9.096;2024-02-26T09:27:00;5.60;99.90
40732;DHT22;26420;52.256;9.096;2024-02-26T09:32:02;5.60;99.90
40732;DHT22;26420;52.256;9.096;2024-02-26T09:37:04;5.70;99.90
40732;DHT22;26420;52.256;9.096;2024-02-26T09:42:19;5.70;99.90
40732;DHT22;26420;52.256;9.096;2024-02-26T09:47:23;5.70;99.90
40732;DHT22;26420;52.256;9.096;2024-02-26T09:52:25;5.90;99.90
40732;DHT22;26420;52.256;9.096;2024-02-26T09:57:30;5.90;99.90
40732;DHT22;26420;52.256;9.096;2024-02-26T10:02:35;6.10;99.90
40732;DHT22;26420;52.256;9.096;2024-02-26T10:07:44;6.20;99.90
40732;DHT22;26420;52.256;9.096;2024-02-26T10:12:46;6.30;99.90
40732;DHT22;26420;52.256;9.096;2024-02-26T10:17:48;6.40;99.90
40732;DHT22;26420;52.256;9.096;2024-02-26T10:22:50;6.50;99.90
40732;DHT22;26420;52.256;9.096;2024-02-26T10:27:54;6.40;99.90
40732;DHT22;26420;52.256;9.096;2024-02-26T10:32:57;6.30;99.90
40732;DHT22;26420;52.256;9.096;2024-02-26T10:38:00;6.50;99.90
40732;DHT22;26420;52.256;9.096;2024-02-26T10:43:09;6.50;99.90
40732;DHT22;26420;52.256;9.096;2024-02-26T10:48:14;6.60;99.90
40732;DHT22;26420;52.256;9.096;2024-02-26T10:53:23;6.70;99.90
40732;DHT22;26420;52.256;9.096;2024-02-26T10:58:25;6.80;99.90
40732;DHT22;26420;52.256;9.096;2024-02-26T11:03:30;7.00;99.90
40732;DHT22;26420;52.256;9.096;2024-02-26T11:08:34;7.20;99.90
40732;DHT22;26420;52.256;9.096;2024-02-26T11:13:37;7.30;99.90
40732;DHT22;26420;52.256;9.096;2024-02-26T11:18:47;7.50;99.90
40732;DHT22;26420;52.256;9.096;2024-02-26T11:23:52;7.50;99.90
40732;DHT22;26420;52.256;9.096;2024-02-26T11:28:55;7.50;99.90
40732;DHT22;26420;52.256;9.096;2024-02-26T11:33:58;7.50;99.90
40732;DHT22;26420;52.256;9.096;2024-02-26T11:39:01;7.40;99.90
40732;DHT22;26420;52.256;9.096;2024-02-26T11:44:03;7.50;99.90
40732;DHT22;26420;52.256;9.096;2024-02-26T11:54:50;8.00;99.90
40732;DHT22;26420;52.256;9.096;2024-02-26T11:59:56;8.40;99.90
40732;DHT22;26420;52.256;9.096;2024-02-26T12:04:58;8.80;99.90
40732;DHT22;26420;52.256;9.096;2024-02-26T12:15:33;9.00;99.90
40732;DHT22;26420;52.256;9.096;2024-02-26T12:20:36;8.70;99.90
40732;DHT22;26420;52.256;9.096;2024-02-26T12:25:38;8.50;99.90
40732;DHT22;26420;52.256;9.096;2024-02-26T12:30:40;8.50;99.90
40732;DHT22;26420;52.256;9.096;2024-02-26T12:35:44;8.40;99.90
40732;DHT22;26420;52.256;9.096;2024-02-26T12:40:49;8.40;99.90
40732;DHT22;26420;52.256;9.096;2024-02-26T12:45:52;8.40;99.90
40732;DHT22;26420;52.256;9.096;2024-02-26T12:50:54;8.30;99.90
40732;DHT22;26420;52.256;9.096;2024-02-26T12:55:56;8.30;99.90
40732;DHT22;26420;52.256;9.096;2024-02-26T13:00:58;8.40;99.90
40732;DHT22;26420;52.256;9.096;2024-02-26T13:06:01;8.50;99.90
40732;DHT22;26420;52.256;9.096;2024-02-26T13:11:04;8.50;99.90
40732;DHT22;26420;52.256;9.096;2024-02-26T13:16:13;8.60;99.90
40732;DHT22;26420;52.256;9.096;2024-02-26T13:21:18;8.60;99.90
40732;DHT22;26420;52.256;9.096;2024-02-26T13:26:22;8.60;99.90
40732;DHT22;26420;52.256;9.096;2024-02-26T13:31:25;8.50;99.90
40732;DHT22;26420;52.256;9.096;2024-02-26T13:36:27;8.60;99.90
40732;DHT22;26420;52.256;9.096;2024-02-26T13:41:34;8.60;99.90
40732;DHT22;26420;52.256;9.096;2024-02-26T13:46:36;8.80;99.90
40732;DHT22;26420;52.256;9.096;2024-02-26T13:51:39;8.80;99.90
40732;DHT22;26420;52.256;9.096;2024-02-26T13:56:41;8.80;99.90
40732;DHT22;26420;52.256;9.096;2024-02-26T14:01:47;8.80;99.90
40732;DHT22;26420;52.256;9.096;2024-02-26T14:06:48;9.00;99.90
40732;DHT22;26420;52.256;9.096;2024-02-26T14:11:51;9.10;99.90
40732;DHT22;26420;52.256;9.096;2024-02-26T14:16:53;9.20;99.90
40732;DHT22;26420;52.256;9.096;2024-02-26T14:22:19;9.20;99.90
40732;DHT22;26420;52.256;9.096;2024-02-26T14:27:21;9.40;99.90
40732;DHT22;26420;52.256;9.096;2024-02-26T14:32:24;9.30;99.90
40732;DHT22;26420;52.256;9.096;2024-02-26T14:37:25;9.20;99.90
40732;DHT22;26420;52.256;9.096;2024-02-26T14:42:28;9.10;99.90
40732;DHT22;26420;52.256;9.096;2024-02-26T14:47:30;9.00;99.90
40732;DHT22;26420;52.256;9.096;2024-02-26T14:52:32;8.90;99.90
40732;DHT22;26420;52.256;9.096;2024-02-26T14:57:33;8.80;99.90
40732;DHT22;26420;52.256;9.096;2024-02-26T15:02:35;8.80;99.90
40732;DHT22;26420;52.256;9.096;2024-02-26T15:07:37;8.60;99.90
40732;DHT22;26420;52.256;9.096;2024-02-26T15:12:42;8.60;99.90
40732;DHT22;26420;52.256;9.096;2024-02-26T15:17:44;8.60;99.90
40732;DHT22;26420;52.256;9.096;2024-02-26T15:22:45;8.60;99.90
40732;DHT22;26420;52.256;9.096;2024-02-26T15:27:48;8.60;99.90
40732;DHT22;26420;52.256;9.096;2024-02-26T15:32:50;8.50;99.90
40732;DHT22;26420;52.256;9.096;2024-02-26T15:37:55;8.50;99.90
40732;DHT22;26420;52.256;9.096;2024-02-26T15:42:57;8.40;99.90
40732;DHT22;26420;52.256;9.096;2024-02-26T15:47:59;8.30;99.90
40732;DHT22;26420;52.256;9.096;2024-02-26T15:53:01;8.30;99.90
40732;DHT22;26420;52.256;9.096;2024-02-26T15:58:03;8.30;99.90
40732;DHT22;26420;52.256;9.096;2024-02-26T16:03:04;8.10;99.90
40732;DHT22;26420;52.256;9.096;2024-02-26T16:08:17;8.00;99.90
40732;DHT22;26420;52.256;9.096;2024-02-26T16:13:22;7.80;99.90
40732;DHT22;26420;52.256;9.096;2024-02-26T16:18:23;7.90;99.90
40732;DHT22;26420;52.256;9.096;2024-02-26T16:23:25;7.80;99.90
40732;DHT22;26420;52.256;9.096;2024-02-26T16:28:27;7.90;99.90
40732;DHT22;26420;52.256;9.096;2024-02-26T16:33:29;7.90;99.90
40732;DHT22;26420;52.256;9.096;2024-02-26T16:38:31;7.80;99.90
40732;DHT22;26420;52.256;9.096;2024-02-26T16:43:32;7.80;99.90
40732;DHT22;26420;52.256;9.096;2024-02-26T16:48:37;7.70;99.90
40732;DHT22;26420;52.256;9.096;2024-02-26T16:53:39;7.60;99.90
40732;DHT22;26420;52.256;9.096;2024-02-26T16:58:40;7.50;99.90
40732;DHT22;26420;52.256;9.096;2024-02-26T17:03:42;7.50;99.90
40732;DHT22;26420;52.256;9.096;2024-02-26T17:08:44;7.40;99.90
40732;DHT22;26420;52.256;9.096;2024-02-26T17:13:46;7.50;99.90
40732;DHT22;26420;52.256;9.096;2024-02-26T17:18:48;7.40;99.90
40732;DHT22;26420;52.256;9.096;2024-02-26T17:23:50;7.40;99.90
40732;DHT22;26420;52.256;9.096;2024-02-26T17:28:53;7.40;99.90
40732;DHT22;26420;52.256;9.096;2024-02-26T17:33:56;7.30;99.90
40732;DHT22;26420;52.256;9.096;2024-02-26T17:38:59;7.30;99.90
40732;DHT22;26420;52.256;9.096;2024-02-26T17:44:01;7.30;99.90
40732;DHT22;26420;52.256;9.096;2024-02-26T17:49:04;7.30;99.90
40732;DHT22;26420;52.256;9.096;2024-02-26T17:54:06;7.30;99.90
40732;DHT22;26420;52.256;9.096;2024-02-26T17:59:09;7.30;99.90
40732;DHT22;26420;52.256;9.096;2024-02-26T18:04:11;7.30;99.90
40732;DHT22;26420;52.256;9.096;2024-02-26T18:09:13;7.30;99.90
40732;DHT22;26420;52.256;9.096;2024-02-26T18:14:16;7.20;99.90
40732;DHT22;26420;52.256;9.096;2024-02-26T18:19:18;7.30;99.90
40732;DHT22;26420;52.256;9.096;2024-02-26T18:24:20;7.30;99.90
40732;DHT22;26420;52.256;9.096;2024-02-26T18:29:22;7.20;99.90
40732;DHT22;26420;52.256;9.096;2024-02-26T18:34:24;7.20;99.90
40732;DHT22;26420;52.256;9.096;2024-02-26T18:39:26;7.20;99.90
40732;DHT22;26420;52.256;9.096;2024-02-26T18:44:28;7.10;99.90
40732;DHT22;26420;52.256;9.096;2024-02-26T18:49:30;7.10;99.90
40732;DHT22;26420;52.256;9.096;2024-02-26T18:54:34;7.10;99.90
40732;DHT22;26420;52.256;9.096;2024-02-26T18:59:38;7.00;99.90
40732;DHT22;26420;52.256;9.096;2024-02-26T19:04:40;6.90;99.90
40732;DHT22;26420;52.256;9.096;2024-02-26T19:09:42;6.90;99.90
40732;DHT22;26420;52.256;9.096;2024-02-26T19:14:44;7.00;99.90
40732;DHT22;26420;52.256;9.096;2024-02-26T19:19:46;6.90;99.90
40732;DHT22;26420;52.256;9.096;2024-02-26T19:24:48;6.80;99.90
40732;DHT22;26420;52.256;9.096;2024-02-26T19:29:50;6.80;99.90
40732;DHT22;26420;52.256;9.096;2024-02-26T19:34:51;6.80;99.90
40732;DHT22;26420;52.256;9.096;2024-02-26T19:39:53;6.90;99.90
40732;DHT22;26420;52.256;9.096;2024-02-26T19:44:59;6.80;99.90
40732;DHT22;26420;52.256;9.096;2024-02-26T19:50:03;6.80;99.90
40732;DHT22;26420;52.256;9.096;2024-02-26T19:55:05;6.80;99.90
40732;DHT22;26420;52.256;9.096;2024-02-26T20:00:09;6.70;99.90
40732;DHT22;26420;52.256;9.096;2024-02-26T20:05:14;6.70;99.90
40732;DHT22;26420;52.256;9.096;2024-02-26T20:10:16;6.80;99.90
40732;DHT22;26420;52.256;9.096;2024-02-26T20:15:18;6.70;99.90
40732;DHT22;26420;52.256;9.096;2024-02-26T20:20:20;6.60;99.90
40732;DHT22;26420;52.256;9.096;2024-02-26T20:25:22;6.60;99.90
40732;DHT22;26420;52.256;9.096;2024-02-26T20:30:23;6.50;99.90
40732;DHT22;26420;52.256;9.096;2024-02-26T20:35:27;6.40;99.90
40732;DHT22;26420;52.256;9.096;2024-02-26T20:40:29;6.40;99.90
40732;DHT22;26420;52.256;9.096;2024-02-26T20:45:31;6.30;99.90
40732;DHT22;26420;52.256;9.096;2024-02-26T20:50:33;6.30;99.90
40732;DHT22;26420;52.256;9.096;2024-02-26T20:55:37;6.30;99.90
40732;DHT22;26420;52.256;9.096;2024-02-26T21:00:41;6.30;99.90
40732;DHT22;26420;52.256;9.096;2024-02-26T21:05:45;6.30;99.90
40732;DHT22;26420;52.256;9.096;2024-02-26T21:10:46;6.20;99.90
40732;DHT22;26420;52.256;9.096;2024-02-26T21:15:50;6.20;99.90
40732;DHT22;26420;52.256;9.096;2024-02-26T21:20:52;6.10;99.90
40732;DHT22;26420;52.256;9.096;2024-02-26T21:25:55;6.00;99.90
40732;DHT22;26420;52.256;9.096;2024-02-26T21:30:57;6.00;99.90
40732;DHT22;26420;52.256;9.096;2024-02-26T21:36:00;5.90;99.90
40732;DHT22;26420;52.256;9.096;2024-02-26T21:41:02;5.90;99.90
40732;DHT22;26420;52.256;9.096;2024-02-26T21:46:07;5.80;99.90
40732;DHT22;26420;52.256;9.096;2024-02-26T21:51:08;5.70;99.90
40732;DHT22;26420;52.256;9.096;2024-02-26T21:56:10;5.70;99.90
40732;DHT22;26420;52.256;9.096;2024-02-26T22:01:12;5.70;99.90
40732;DHT22;26420;52.256;9.096;2024-02-26T22:06:14;5.70;99.90
40732;DHT22;26420;52.256;9.096;2024-02-26T22:11:16;5.60;99.90
40732;DHT22;26420;52.256;9.096;2024-02-26T22:16:18;5.70;99.90
40732;DHT22;26420;52.256;9.096;2024-02-26T22:21:20;5.70;99.90
40732;DHT22;26420;52.256;9.096;2024-02-26T22:26:22;5.60;99.90
40732;DHT22;26420;52.256;9.096;2024-02-26T22:31:25;5.60;99.90
40732;DHT22;26420;52.256;9.096;2024-02-26T22:36:27;5.50;99.90
40732;DHT22;26420;52.256;9.096;2024-02-26T22:41:29;5.50;99.90
40732;DHT22;26420;52.256;9.096;2024-02-26T22:46:31;5.40;99.90
40732;DHT22;26420;52.256;9.096;2024-02-26T22:51:33;5.40;99.90
40732;DHT22;26420;52.256;9.096;2024-02-26T22:56:35;5.40;99.90
40732;DHT22;26420;52.256;9.096;2024-02-26T23:01:37;5.20;99.90
40732;DHT22;26420;52.256;9.096;2024-02-26T23:06:39;5.20;99.90
40732;DHT22;26420;52.256;9.096;2024-02-26T23:11:41;5.10;99.90
40732;DHT22;26420;52.256;9.096;2024-02-26T23:16:43;5.00;99.90
40732;DHT22;26420;52.256;9.096;2024-02-26T23:21:46;4.90;99.90
40732;DHT22;26420;52.256;9.096;2024-02-26T23:26:48;4.90;99.90
40732;DHT22;26420;52.256;9.096;2024-02-26T23:31:50;4.80;99.90
40732;DHT22;26420;52.256;9.096;2024-02-26T23:36:52;4.70;99.90
40732;DHT22;26420;52.256;9.096;2024-02-26T23:41:53;4.70;99.90
40732;DHT22;26420;52.256;9.096;2024-02-26T23:46:55;4.60;99.90
40732;DHT22;26420;52.256;9.096;2024-02-26T23:51:57;4.60;99.90
40732;DHT22;26420;52.256;9.096;2024-02-26T23:56:59;4.40;99.90
